地図

経路データ

SID SEASON NUMBER BASIN SUBBASIN NAME ISO_TIME NATURE LAT LON WMO_WIND WMO_PRES WMO_AGENCY TRACK_TYPE DIST2LAND LANDFALL IFLAG USA_AGENCY USA_ATCF_ID USA_LAT USA_LON USA_RECORD USA_STATUS USA_WIND USA_PRES USA_SSHS USA_R34_NE USA_R34_SE USA_R34_SW USA_R34_NW USA_R50_NE USA_R50_SE USA_R50_SW USA_R50_NW USA_R64_NE USA_R64_SE USA_R64_SW USA_R64_NW USA_POCI USA_ROCI USA_RMW USA_EYE TOKYO_LAT TOKYO_LON TOKYO_GRADE TOKYO_WIND TOKYO_PRES TOKYO_R50_DIR TOKYO_R50_LONG TOKYO_R50_SHORT TOKYO_R30_DIR TOKYO_R30_LONG TOKYO_R30_SHORT TOKYO_LAND CMA_LAT CMA_LON CMA_CAT CMA_WIND CMA_PRES HKO_LAT HKO_LON HKO_CAT HKO_WIND HKO_PRES NEWDELHI_LAT NEWDELHI_LON NEWDELHI_GRADE NEWDELHI_WIND NEWDELHI_PRES NEWDELHI_CI NEWDELHI_DP NEWDELHI_POCI REUNION_LAT REUNION_LON REUNION_TYPE REUNION_WIND REUNION_PRES REUNION_TNUM REUNION_CI REUNION_RMW REUNION_R34_NE REUNION_R34_SE REUNION_R34_SW REUNION_R34_NW REUNION_R50_NE REUNION_R50_SE REUNION_R50_SW REUNION_R50_NW REUNION_R64_NE REUNION_R64_SE REUNION_R64_SW REUNION_R64_NW BOM_LAT BOM_LON BOM_TYPE BOM_WIND BOM_PRES BOM_TNUM BOM_CI BOM_RMW BOM_R34_NE BOM_R34_SE BOM_R34_SW BOM_R34_NW BOM_R50_NE BOM_R50_SE BOM_R50_SW BOM_R50_NW BOM_R64_NE BOM_R64_SE BOM_R64_SW BOM_R64_NW BOM_ROCI BOM_POCI BOM_EYE BOM_POS_METHOD BOM_PRES_METHOD NADI_LAT NADI_LON NADI_CAT NADI_WIND NADI_PRES WELLINGTON_LAT WELLINGTON_LON WELLINGTON_WIND WELLINGTON_PRES DS824_LAT DS824_LON DS824_STAGE DS824_WIND DS824_PRES TD9636_LAT TD9636_LON TD9636_STAGE TD9636_WIND TD9636_PRES TD9635_LAT TD9635_LON TD9635_WIND TD9635_PRES TD9635_ROCI NEUMANN_LAT NEUMANN_LON NEUMANN_CLASS NEUMANN_WIND NEUMANN_PRES MLC_LAT MLC_LON MLC_CLASS MLC_WIND MLC_PRES USA_GUST BOM_GUST BOM_GUST_PER REUNION_GUST REUNION_GUST_PER USA_SEAHGT USA_SEARAD_NE USA_SEARAD_SE USA_SEARAD_SW USA_SEARAD_NW STORM_SPEED STORM_DIR
1998267N33295 1998 71 NA NA KARL 1998-09-23 12:00:00 TS 33.3000 -65.4000 25 1003 hurdat_atl main 963 963 O_____________ hurdat_atl AL111998 33.3000 -65.4000 TD 25 1003 -1 22 93
1998267N33295 1998 71 NA NA KARL 1998-09-23 15:00:00 TS 33.2356 -64.0639 main 1079 1079 P_____________ AL111998 33.2356 -64.0639 TD 27 1003 -1 22 93
1998267N33295 1998 71 NA NA KARL 1998-09-23 18:00:00 TS 33.2000 -62.8000 30 1004 hurdat_atl main 1138 1138 O_____________ hurdat_atl AL111998 33.2000 -62.8000 TD 30 1004 -1 20 91
1998267N33295 1998 71 NA NA KARL 1998-09-23 21:00:00 TS 33.2141 -61.6686 main 1188 1188 P_____________ AL111998 33.2141 -61.6686 TD 32 1003 -1 18 90
1998267N33295 1998 71 NA NA KARL 1998-09-24 00:00:00 TS 33.2000 -60.7000 35 1003 hurdat_atl main 1214 1214 O_____________ hurdat_atl AL111998 33.2000 -60.7000 TS 35 1003 0 15 95
1998267N33295 1998 71 NA NA KARL 1998-09-24 03:00:00 TS 33.0791 -59.8748 main 1248 1248 P_____________ AL111998 33.0791 -59.8748 TS 35 1002 0 13 103
1998267N33295 1998 71 NA NA KARL 1998-09-24 06:00:00 TS 32.9000 -59.2000 35 1002 hurdat_atl main 1293 1293 O_____________ hurdat_atl AL111998 32.9000 -59.2000 TS 35 1002 0 11 109
1998267N33295 1998 71 NA NA KARL 1998-09-24 09:00:00 TS 32.7145 -58.6053 main 1336 1336 P_____________ AL111998 32.7145 -58.6053 TS 37 1001 0 10 113
1998267N33295 1998 71 NA NA KARL 1998-09-24 12:00:00 TS 32.5000 -58.1000 40 1001 hurdat_atl main 1375 1375 O_____________ hurdat_atl AL111998 32.5000 -58.1000 TS 40 1001 0 9 119
1998267N33295 1998 71 NA NA KARL 1998-09-24 15:00:00 TS 32.2646 -57.6429 main 1416 1416 P_____________ AL111998 32.2646 -57.6429 TS 42 1000 0 9 123
1998267N33295 1998 71 NA NA KARL 1998-09-24 18:00:00 TS 32.0000 -57.2000 45 1000 hurdat_atl main 1462 1462 O_____________ hurdat_atl AL111998 32.0000 -57.2000 TS 45 1000 0 10 125
1998267N33295 1998 71 NA NA KARL 1998-09-24 21:00:00 TS 31.7073 -56.7152 main 1513 1513 P_____________ AL111998 31.7073 -56.7152 TS 47 999 0 10 125
1998267N33295 1998 71 NA NA KARL 1998-09-25 00:00:00 TS 31.4000 -56.2000 50 998 hurdat_atl main 1565 1565 O_____________ hurdat_atl AL111998 31.4000 -56.2000 TS 50 998 0 11 125
1998267N33295 1998 71 NA NA KARL 1998-09-25 03:00:00 TS 31.0849 -55.6575 main 1617 1617 P_____________ AL111998 31.0849 -55.6575 TS 52 996 0 11 122
1998267N33295 1998 71 NA NA KARL 1998-09-25 06:00:00 TS 30.8000 -55.1000 55 994 hurdat_atl main 1674 1674 O_____________ hurdat_atl AL111998 30.8000 -55.1000 TS 55 994 0 11 119
1998267N33295 1998 71 NA NA KARL 1998-09-25 09:00:00 TS 30.5623 -54.5501 main 1717 1717 P_____________ AL111998 30.5623 -54.5501 TS 60 990 0 10 113
1998267N33295 1998 71 NA NA KARL 1998-09-25 12:00:00 TS 30.4000 -54.0000 65 987 hurdat_atl main 1759 1759 O_____________ hurdat_atl AL111998 30.4000 -54.0000 HU 65 987 1 10 105
1998267N33295 1998 71 NA NA KARL 1998-09-25 15:00:00 TS 30.3048 -53.4501 main 1786 1786 P_____________ AL111998 30.3048 -53.4501 HU 67 985 1 10 96
1998267N33295 1998 71 NA NA KARL 1998-09-25 18:00:00 TS 30.3000 -52.9000 70 984 hurdat_atl main 1805 1805 O_____________ hurdat_atl AL111998 30.3000 -52.9000 HU 70 984 1 10 87
1998267N33295 1998 71 NA NA KARL 1998-09-25 21:00:00 TS 30.3475 -52.3274 main 1816 1795 P_____________ AL111998 30.3475 -52.3274 HU 72 982 1 10 78
1998267N33295 1998 71 NA NA KARL 1998-09-26 00:00:00 TS 30.5000 -51.8000 75 981 hurdat_atl main 1796 1776 O_____________ hurdat_atl AL111998 30.5000 -51.8000 HU 75 981 1 9 63
1998267N33295 1998 71 NA NA KARL 1998-09-26 03:00:00 TS 30.7619 -51.3997 main 1765 1735 P_____________ AL111998 30.7619 -51.3997 HU 75 980 1 9 49
1998267N33295 1998 71 NA NA KARL 1998-09-26 06:00:00 TS 31.1000 -51.0000 75 979 hurdat_atl main 1735 1706 O_____________ hurdat_atl AL111998 31.1000 -51.0000 HU 75 979 1 10 50
1998267N33295 1998 71 NA NA KARL 1998-09-26 09:00:00 TS 31.4350 -50.4723 main 1707 1669 P_____________ AL111998 31.4350 -50.4723 HU 75 978 1 12 53
1998267N33295 1998 71 NA NA KARL 1998-09-26 12:00:00 TS 31.8000 -49.9000 75 977 hurdat_atl main 1671 1644 O_____________ hurdat_atl AL111998 31.8000 -49.9000 HU 75 977 1 12 52
1998267N33295 1998 71 NA NA KARL 1998-09-26 15:00:00 TS 32.1543 -49.3783 main 1635 1602 P_____________ AL111998 32.1543 -49.3783 HU 77 975 1 12 49
1998267N33295 1998 71 NA NA KARL 1998-09-26 18:00:00 TS 32.6000 -48.8000 80 973 hurdat_atl main 1602 1549 O_____________ hurdat_atl AL111998 32.6000 -48.8000 HU 80 973 1 15 46
1998267N33295 1998 71 NA NA KARL 1998-09-26 21:00:00 TS 33.1892 -48.1234 main 1552 1494 P_____________ AL111998 33.1892 -48.1234 HU 85 971 2 18 44
1998267N33295 1998 71 NA NA KARL 1998-09-27 00:00:00 TS 33.9000 -47.3000 90 970 hurdat_atl main 1497 1448 O_____________ hurdat_atl AL111998 33.9000 -47.3000 HU 90 970 2 21 45
1998267N33295 1998 71 NA NA KARL 1998-09-27 03:00:00 TS 34.6540 -46.3373 main 1444 1404 P_____________ AL111998 34.6540 -46.3373 HU 90 970 2 24 47
1998267N33295 1998 71 NA NA KARL 1998-09-27 06:00:00 TS 35.5000 -45.2000 90 970 hurdat_atl main 1402 1365 O_____________ hurdat_atl AL111998 35.5000 -45.2000 HU 90 970 2 26 47
1998267N33295 1998 71 NA NA KARL 1998-09-27 09:00:00 TS 36.4403 -43.9527 main 1365 1346 P_____________ AL111998 36.4403 -43.9527 HU 85 971 2 29 49
1998267N33295 1998 71 NA NA KARL 1998-09-27 12:00:00 TS 37.4000 -42.5000 80 973 hurdat_atl main 1347 1343 O_____________ hurdat_atl AL111998 37.4000 -42.5000 HU 80 973 1 31 53
1998267N33295 1998 71 NA NA KARL 1998-09-27 15:00:00 TS 38.2920 -40.8672 main 1362 1362 P_____________ AL111998 38.2920 -40.8672 HU 75 978 1 32 58
1998267N33295 1998 71 NA NA KARL 1998-09-27 18:00:00 TS 39.1000 -39.0000 70 983 hurdat_atl main 1418 1418 O_____________ hurdat_atl AL111998 39.1000 -39.0000 HU 70 983 1 34 64
1998267N33295 1998 71 NA NA KARL 1998-09-27 21:00:00 TS 39.7924 -36.9355 main 1509 1509 P_____________ AL111998 39.7924 -36.9355 HU 62 988 0 35 69
1998267N33295 1998 71 NA NA KARL 1998-09-28 00:00:00 TS 40.4000 -34.7000 55 994 hurdat_atl main 1625 1625 O_____________ hurdat_atl AL111998 40.4000 -34.7000 TS 55 994 0 37 71
1998267N33295 1998 71 NA NA KARL 1998-09-28 03:00:00 TS 41.0055 -32.4021 main 1751 1709 P_____________ AL111998 41.0055 -32.4021 TS 47 998 0 37 73
1998267N33295 1998 71 NA NA KARL 1998-09-28 06:00:00 ET 41.5000 -30.0000 40 1002 hurdat_atl main 1701 1510 O_____________ hurdat_atl AL111998 41.5000 -30.0000 EX 40 1002 -4 37 78
1998267N33295 1998 71 NA NA KARL 1998-09-28 09:00:00 ET 41.7536 -27.5113 main 1492 1293 P_____________ AL111998 41.7536 -27.5113 EX 37 1001 -4 38 82
1998267N33295 1998 71 NA NA KARL 1998-09-28 12:00:00 ET 42.0000 -25.0000 35 1001 hurdat_atl main 1285 1085 O_____________ hurdat_atl AL111998 42.0000 -25.0000 EX 35 1001 -4 38 82
1998267N33295 1998 71 NA NA KARL 1998-09-28 15:00:00 ET 42.3123 -22.4119 main 1069 875 P_____________ AL111998 42.3123 -22.4119 EX 35 1000 -4 38 75
1998267N33295 1998 71 NA NA KARL 1998-09-28 18:00:00 ET 43.0000 -20.0000 35 1000 hurdat_atl main 866 704 O_____________ hurdat_atl AL111998 43.0000 -20.0000 EX 35 1000 -4 40 58
1998267N33295 1998 71 NA NA KARL 1998-09-28 21:00:00 ET 44.4234 -17.7949 main 697 626 P_____________ AL111998 44.4234 -17.7949 EX 35 998 -4 41 44
1998267N33295 1998 71 NA NA KARL 1998-09-29 00:00:00 ET 46.0000 -16.0000 35 996 hurdat_atl main 625 607 O_____________ hurdat_atl AL111998 46.0000 -16.0000 EX 35 996 -4 34 36
1998267N33295 1998 71 NA NA KARL 1998-09-29 03:00:00 ET 47.1409 -14.9081 main 602 486 P_____________ AL111998 47.1409 -14.9081 EX 35 995 -4 24 34
1998267N33295 1998 71 NA NA KARL 1998-09-29 06:00:00 ET 48.0000 -14.0000 35 994 hurdat_atl main 482 372 O_____________ hurdat_atl AL111998 48.0000 -14.0000 EX 35 994 -4 22 46
1998267N33295 1998 71 NA NA KARL 1998-09-29 09:00:00 ET 48.6504 -12.5760 main 359 281 P_____________ AL111998 48.6504 -12.5760 EX 35 994 -4 22 63
1998267N33295 1998 71 NA NA KARL 1998-09-29 12:00:00 ET 49.0000 -11.0000 35 994 hurdat_atl main 279 255 O_____________ hurdat_atl AL111998 49.0000 -11.0000 EX 35 994 -4 21 78
1998267N33295 1998 71 NA NA KARL 1998-09-29 15:00:00 ET 49.0774 -9.47136 main 256 211 P_____________ AL111998 49.0774 -9.47136 EX 35 992 -4 20 90
1998267N33295 1998 71 NA NA KARL 1998-09-29 18:00:00 ET 49.0000 -8.00000 35 991 hurdat_atl main 205 O_____________ hurdat_atl AL111998 49.0000 -8.00000 EX 35 991 -4 19 95

IBTrACS Databaseについて

本データベースは、米国NOAAが公開する1842年以降の世界の熱帯低気圧のベストトラックデータアーカイブInternational Best Track Archive for Climate Stewardship (IBTrACS)を、ウェブで閲覧しやすい形式に変換したものです。

最終更新日:2021-10-08